Winchester, Missouri
Current Conditions -  °F | °C
As of 12:54 AM on Sunday 23 Nov 2014 (Local Time) from KSUS Reporting Station
Overcast Overcast  
Wind Chill: 55°   Ceiling: 10000
Heat Index: 55°   Visibility: 10mi
Dew Point: 47°   Wind: 7mph
Humidity: 74%   Direction: 190°S
Pressure: 29.81"   Gusts: NA
Location:  38.5691°N, 90.5462°W
Report Text: KSUS 230654Z AUTO 19006KT 10SM OVC100 13/08 A2981 RMK AO2 SLP094 T01280083
Loading
Personal Weather Stations






























Interactive Weather Map New forecast layout! Learn more

10-Day Weather Forecast

Advertisements
Track Severe Weather on mobile